Time;durP1;ratioP1;P1;durP2;ratioP2;P2;SDS_P1;SDS_P2;PMS_P1;PMS_P2;Temp;Humidity;BMP_temperature;BMP_pressure;BME280_temperature;BME280_humidity;BME280_pressure;Samples;Min_cycle;Max_cycle;Signal;HPM_P1;HPM_P2
2021/03/18 00:00:41;;;;;;;19.88;11.45;;;0.40;99.90;;;;;;5022717;28;20046;-70
2021/03/18 00:03:08;;;;;;;19.48;11.40;;;0.50;99.90;;;;;;5029497;28;20052;-69
2021/03/18 00:05:35;;;;;;;15.38;10.23;;;0.40;99.90;;;;;;5032087;28;20833;-69
2021/03/18 00:08:02;;;;;;;20.95;13.23;;;0.40;99.90;;;;;;5032852;28;20057;-70
2021/03/18 00:10:29;;;;;;;19.45;11.35;;;0.30;99.90;;;;;;5033980;28;20128;-69
2021/03/18 00:12:56;;;;;;;20.88;12.10;;;0.20;99.90;;;;;;5033591;28;20061;-70
2021/03/18 00:15:23;;;;;;;18.70;11.30;;;0.20;99.90;;;;;;5033414;28;20065;-70
2021/03/18 00:17:49;;;;;;;20.23;11.75;;;0.10;99.90;;;;;;5033800;28;20391;-69
2021/03/18 00:20:16;;;;;;;23.80;11.85;;;0.00;99.90;;;;;;5030557;28;20475;-69
2021/03/18 00:22:43;;;;;;;20.40;12.10;;;0.00;99.90;;;;;;5023323;28;20046;-69
2021/03/18 00:25:13;;;;;;;17.60;11.10;;;0.00;99.90;;;;;;5029929;28;20054;-69
2021/03/18 00:27:42;;;;;;;22.17;11.82;;;-0.10;99.90;;;;;;5032167;28;20064;-69
2021/03/18 00:30:10;;;;;;;20.25;11.57;;;-0.20;99.90;;;;;;5019428;28;20057;-69
2021/03/18 00:32:39;;;;;;;17.75;10.98;;;-0.30;99.90;;;;;;5020333;28;20045;-69
2021/03/18 00:35:08;;;;;;;20.52;11.30;;;-0.40;99.90;;;;;;5033980;28;20059;-69
2021/03/18 00:37:39;;;;;;;21.73;12.70;;;-0.40;99.90;;;;;;5033007;28;20488;-69
2021/03/18 00:40:21;;;;;;;24.13;12.23;;;-0.50;99.90;;;;;;5033812;28;20431;-69
2021/03/18 00:42:59;;;;;;;20.80;12.32;;;-0.50;99.90;;;;;;5030840;28;20079;-69
2021/03/18 00:45:27;;;;;;;28.40;12.32;;;-0.50;99.90;;;;;;5033891;28;20060;-69
2021/03/18 00:47:55;;;;;;;22.08;12.05;;;-0.50;99.90;;;;;;5031061;28;20399;-69
2021/03/18 00:50:27;;;;;;;22.23;12.77;;;-0.50;99.90;;;;;;5026527;28;20500;-70
2021/03/18 00:52:53;;;;;;;23.88;13.73;;;-0.50;99.90;;;;;;5033907;28;20514;-69
2021/03/18 00:55:20;;;;;;;23.23;13.77;;;-0.50;99.90;;;;;;5032465;28;20049;-69
2021/03/18 00:57:46;;;;;;;25.58;13.15;;;-0.40;99.90;;;;;;5032804;28;20418;-69
2021/03/18 01:00:23;;;;;;;41.88;17.50;;;-0.40;99.90;;;;;;5028917;28;20055;-69
2021/03/18 01:02:51;;;;;;;25.55;14.18;;;-0.40;99.90;;;;;;5033148;28;20115;-68
2021/03/18 01:05:37;;;;;;;20.45;11.98;;;-0.40;99.90;;;;;;5023724;28;20129;-69
2021/03/18 01:08:04;;;;;;;22.13;12.18;;;-0.40;99.90;;;;;;5032583;28;20041;-69
2021/03/18 01:10:45;;;;;;;18.95;11.45;;;-0.40;99.90;;;;;;5033128;28;20148;-70
2021/03/18 01:13:17;;;;;;;19.50;12.68;;;-0.50;99.90;;;;;;5032749;28;20056;-70
2021/03/18 01:15:44;;;;;;;20.25;12.02;;;-0.50;99.90;;;;;;5023606;28;20133;-70
2021/03/18 01:18:11;;;;;;;23.67;12.85;;;-0.50;99.90;;;;;;5030358;28;20460;-70
2021/03/18 01:20:38;;;;;;;19.70;12.02;;;-0.60;99.90;;;;;;5026704;28;20472;-70
2021/03/18 01:23:05;;;;;;;22.13;12.55;;;-0.60;99.90;;;;;;5015652;28;20046;-70
2021/03/18 01:25:31;;;;;;;22.73;13.50;;;-0.60;99.90;;;;;;5032851;28;20045;-70
2021/03/18 01:27:58;;;;;;;27.25;12.95;;;-0.70;99.90;;;;;;5031436;28;20068;-70
2021/03/18 01:30:25;;;;;;;21.75;12.80;;;-0.70;99.90;;;;;;5032490;28;20060;-70
2021/03/18 01:32:51;;;;;;;21.17;12.52;;;-0.80;99.90;;;;;;5021631;28;20060;-69
2021/03/18 01:35:20;;;;;;;23.58;13.40;;;-0.80;99.90;;;;;;5026976;28;20423;-70
2021/03/18 01:37:48;;;;;;;21.70;12.73;;;-0.90;99.90;;;;;;5031855;28;20042;-69
2021/03/18 01:40:21;;;;;;;23.73;13.73;;;-0.90;99.90;;;;;;5031479;28;20053;-70
2021/03/18 01:42:47;;;;;;;24.90;13.23;;;-1.00;99.90;;;;;;5028897;28;20056;-69
2021/03/18 01:45:14;;;;;;;24.40;13.30;;;-1.00;99.90;;;;;;5028609;28;20057;-69
2021/03/18 01:47:43;;;;;;;24.33;13.48;;;-1.00;99.90;;;;;;5031650;28;20054;-70
2021/03/18 01:50:12;;;;;;;22.58;12.88;;;-0.90;99.90;;;;;;5031001;28;20095;-70
2021/03/18 01:52:39;;;;;;;20.95;13.13;;;-0.90;99.90;;;;;;5028775;28;20060;-70
2021/03/18 01:55:08;;;;;;;25.33;14.43;;;-0.90;99.90;;;;;;5031565;28;20481;-70
2021/03/18 01:57:37;;;;;;;26.80;14.18;;;-0.90;99.90;;;;;;5031727;28;20055;-69
2021/03/18 02:00:09;;;;;;;26.13;13.70;;;-0.90;99.90;;;;;;5029599;28;20045;-70
2021/03/18 02:02:54;;;;;;;22.25;12.70;;;-0.80;99.90;;;;;;5015600;28;20512;-68
2021/03/18 02:05:22;;;;;;;23.30;13.75;;;-0.90;99.90;;;;;;5031827;28;20411;-69
2021/03/18 02:07:51;;;;;;;26.38;13.73;;;-0.90;99.90;;;;;;5021989;28;20049;-69
2021/03/18 02:10:18;;;;;;;27.88;14.25;;;-0.80;99.90;;;;;;5022570;28;20518;-69
2021/03/18 02:12:45;;;;;;;26.40;13.20;;;-0.90;99.90;;;;;;5030934;28;20053;-69
2021/03/18 02:15:12;;;;;;;28.00;13.07;;;-0.90;99.90;;;;;;5031872;28;20049;-69
2021/03/18 02:18:04;;;;;;;22.85;12.63;;;-1.00;99.90;;;;;;5031327;28;20045;-69
2021/03/18 02:20:45;;;;;;;23.85;13.18;;;-1.00;99.90;;;;;;5022505;28;20045;-70
2021/03/18 02:23:17;;;;;;;23.38;13.50;;;-1.00;99.90;;;;;;5019909;28;20045;-70
2021/03/18 02:26:09;;;;;;;25.42;14.23;;;-0.90;99.90;;;;;;5018209;28;20048;-69
2021/03/18 02:29:06;;;;;;;23.30;14.00;;;-0.80;99.90;;;;;;5034516;28;20053;-70
2021/03/18 02:32:05;;;;;;;26.70;14.02;;;-0.80;99.90;;;;;;5027714;28;20172;-71
2021/03/18 02:35:10;;;;;;;22.35;13.48;;;-0.70;99.90;;;;;;5031182;28;20052;-70
2021/03/18 02:37:40;;;;;;;26.20;14.82;;;-0.50;99.90;;;;;;5030955;28;20108;-70
2021/03/18 02:40:26;;;;;;;27.85;15.10;;;-0.50;99.90;;;;;;5035840;28;20140;-70
2021/03/18 02:42:59;;;;;;;23.30;13.88;;;-0.30;99.90;;;;;;5035104;28;20049;-70
2021/03/18 02:45:30;;;;;;;25.13;13.75;;;-0.30;99.90;;;;;;5028620;28;20076;-71
2021/03/18 02:47:58;;;;;;;25.02;13.88;;;-0.20;99.90;;;;;;5029288;28;20068;-71
2021/03/18 02:50:29;;;;;;;22.77;13.73;;;-0.10;99.90;;;;;;5025929;28;20073;-70
2021/03/18 02:52:58;;;;;;;24.80;13.68;;;-0.10;99.90;;;;;;5029012;28;20053;-69
2021/03/18 02:55:26;;;;;;;23.83;13.48;;;0.00;99.90;;;;;;5034536;28;20049;-70
2021/03/18 02:57:54;;;;;;;25.05;13.93;;;0.00;99.90;;;;;;5034549;28;20377;-70
2021/03/18 03:00:22;;;;;;;21.77;13.45;;;0.10;99.90;;;;;;5024245;28;20045;-69
2021/03/18 03:02:50;;;;;;;22.35;13.38;;;0.00;99.90;;;;;;5017341;28;20061;-70
2021/03/18 03:05:20;;;;;;;20.95;12.80;;;0.10;99.90;;;;;;5036122;28;20045;-70
2021/03/18 03:07:46;;;;;;;20.52;12.13;;;0.00;99.90;;;;;;5022961;28;20538;-71
2021/03/18 03:10:17;;;;;;;28.63;13.07;;;-0.20;99.90;;;;;;5021003;28;20056;-70
2021/03/18 03:12:45;;;;;;;22.80;12.32;;;-0.30;99.90;;;;;;5030896;28;20527;-70
2021/03/18 03:15:13;;;;;;;24.95;13.80;;;-0.40;99.90;;;;;;5034390;28;20049;-71
2021/03/18 03:17:41;;;;;;;25.70;13.00;;;-0.50;99.90;;;;;;5034459;28;20056;-69
2021/03/18 03:20:12;;;;;;;20.17;12.63;;;-0.50;99.90;;;;;;5034293;28;20060;-70
2021/03/18 03:22:38;;;;;;;23.50;12.95;;;-0.60;99.90;;;;;;5033091;28;20037;-70
2021/03/18 03:25:09;;;;;;;24.00;13.75;;;-0.70;99.90;;;;;;5035312;28;20045;-70
2021/03/18 03:27:36;;;;;;;22.92;13.32;;;-0.80;99.90;;;;;;5034215;28;20068;-70
2021/03/18 03:30:08;;;;;;;26.35;13.35;;;-0.80;99.90;;;;;;5030058;28;20053;-69
2021/03/18 03:32:36;;;;;;;24.00;13.65;;;-0.90;99.90;;;;;;5029139;28;20076;-69
2021/03/18 03:35:05;;;;;;;21.65;12.95;;;-0.90;99.90;;;;;;5025153;28;20136;-70
2021/03/18 03:37:31;;;;;;;25.55;14.88;;;-1.00;99.90;;;;;;5029989;28;20049;-70
2021/03/18 03:39:59;;;;;;;24.83;13.63;;;-1.00;99.90;;;;;;5026251;28;20752;-70
2021/03/18 03:42:25;;;;;;;22.77;13.88;;;-1.00;99.90;;;;;;5027448;28;20055;-70
2021/03/18 03:44:52;;;;;;;22.50;13.90;;;-1.00;99.90;;;;;;5027758;28;20037;-69
2021/03/18 03:47:19;;;;;;;25.00;14.18;;;-1.00;99.90;;;;;;5033678;28;20045;-71
2021/03/18 03:49:46;;;;;;;24.33;14.07;;;-1.00;99.90;;;;;;5034467;28;20514;-70
2021/03/18 03:52:31;;;;;;;27.42;15.55;;;-1.00;99.90;;;;;;5032878;28;20072;-70
2021/03/18 03:55:17;;;;;;;25.40;15.05;;;-1.00;99.90;;;;;;5030981;28;20474;-71
2021/03/18 03:57:56;;;;;;;24.55;14.38;;;-0.90;99.90;;;;;;5019115;28;20112;-70
2021/03/18 04:00:27;;;;;;;28.50;15.10;;;-0.90;99.90;;;;;;5022046;28;20053;-71
2021/03/18 04:03:02;;;;;;;25.98;14.90;;;-0.90;99.90;;;;;;5032952;28;20415;-71
2021/03/18 04:05:30;;;;;;;27.52;14.73;;;-0.80;99.90;;;;;;5034038;28;20044;-71
2021/03/18 04:08:01;;;;;;;27.52;14.13;;;-0.70;99.90;;;;;;5024539;28;20558;-70
2021/03/18 04:10:30;;;;;;;26.27;14.65;;;-0.60;99.90;;;;;;5028382;28;20049;-71
2021/03/18 04:12:59;;;;;;;27.30;14.00;;;-0.50;99.90;;;;;;5026403;28;20054;-70
2021/03/18 04:15:31;;;;;;;21.13;13.45;;;-0.50;99.90;;;;;;5031870;28;20435;-71
2021/03/18 04:18:00;;;;;;;21.45;13.38;;;-0.50;99.90;;;;;;5032721;28;20045;-69
2021/03/18 04:20:28;;;;;;;27.55;14.57;;;-0.40;99.90;;;;;;5033287;28;20052;-70
2021/03/18 04:22:58;;;;;;;26.27;13.20;;;-0.30;99.90;;;;;;5025775;28;20073;-69
2021/03/18 04:25:26;;;;;;;23.42;13.25;;;-0.30;99.90;;;;;;5031674;28;20046;-70
2021/03/18 04:27:55;;;;;;;22.88;13.10;;;-0.20;99.90;;;;;;5027712;28;20086;-70
2021/03/18 04:30:25;;;;;;;20.23;13.02;;;-0.10;99.90;;;;;;5031954;28;20059;-71
2021/03/18 04:32:53;;;;;;;27.48;13.65;;;-0.10;99.90;;;;;;5031215;28;20064;-70
2021/03/18 04:35:21;;;;;;;23.75;12.73;;;0.00;99.90;;;;;;5031908;28;20056;-70
2021/03/18 04:37:48;;;;;;;22.00;13.15;;;0.10;99.90;;;;;;5031402;28;20132;-70
2021/03/18 04:40:18;;;;;;;24.13;13.13;;;0.10;99.90;;;;;;5021308;28;20064;-70
2021/03/18 04:42:45;;;;;;;21.67;12.48;;;0.20;99.90;;;;;;5027414;28;20076;-69
2021/03/18 04:45:13;;;;;;;21.58;12.00;;;0.20;99.90;;;;;;5031686;28;20049;-70
2021/03/18 04:47:44;;;;;;;23.38;13.35;;;0.20;99.90;;;;;;5029627;28;20476;-71
2021/03/18 04:50:12;;;;;;;23.45;13.10;;;0.30;99.90;;;;;;5030572;28;20113;-70
2021/03/18 04:52:40;;;;;;;27.58;14.32;;;0.30;99.90;;;;;;5025308;28;20049;-71
2021/03/18 04:55:11;;;;;;;23.42;13.85;;;0.40;99.90;;;;;;5031761;28;20049;-70
2021/03/18 04:57:43;;;;;;;20.30;11.95;;;0.40;99.90;;;;;;5031860;28;20053;-71
2021/03/18 05:00:11;;;;;;;20.48;12.30;;;0.50;99.90;;;;;;5019063;28;20045;-70
2021/03/18 05:02:40;;;;;;;21.33;12.15;;;0.50;99.90;;;;;;5030962;28;20046;-70
2021/03/18 05:05:18;;;;;;;22.48;13.27;;;0.50;99.90;;;;;;5030967;28;20049;-71
2021/03/18 05:07:47;;;;;;;20.15;13.25;;;0.50;99.90;;;;;;5024670;28;20046;-70
2021/03/18 05:10:16;;;;;;;23.45;13.13;;;0.50;99.90;;;;;;5028856;28;20112;-69
2021/03/18 05:12:44;;;;;;;23.77;13.23;;;0.50;99.90;;;;;;5025992;28;20050;-71
2021/03/18 05:15:12;;;;;;;20.35;12.38;;;0.50;99.90;;;;;;5022206;28;20041;-71
2021/03/18 05:17:39;;;;;;;20.60;12.60;;;0.50;99.90;;;;;;5029418;28;20617;-70
2021/03/18 05:20:10;;;;;;;22.13;12.30;;;0.50;99.90;;;;;;5029589;28;20088;-71
2021/03/18 05:22:37;;;;;;;21.42;13.05;;;0.50;99.90;;;;;;5031055;28;20049;-70
2021/03/18 05:25:08;;;;;;;21.63;13.05;;;0.50;99.90;;;;;;5028728;28;20053;-70
2021/03/18 05:27:36;;;;;;;22.73;12.10;;;0.50;99.90;;;;;;5031925;28;20053;-70
2021/03/18 05:30:06;;;;;;;21.38;13.00;;;0.40;99.90;;;;;;5032786;28;20120;-71
2021/03/18 05:32:33;;;;;;;23.02;13.73;;;0.40;99.90;;;;;;5028835;28;20156;-70
2021/03/18 05:34:59;;;;;;;24.88;14.13;;;0.40;99.90;;;;;;5032601;28;20054;-71
2021/03/18 05:37:26;;;;;;;25.17;12.90;;;0.30;99.90;;;;;;5028437;28;20045;-71
2021/03/18 05:39:52;;;;;;;24.13;13.25;;;0.40;99.90;;;;;;5029406;28;20054;-70
2021/03/18 05:42:19;;;;;;;23.33;14.02;;;0.40;99.90;;;;;;5009712;28;20422;-70
2021/03/18 05:44:45;;;;;;;22.90;13.65;;;0.40;99.90;;;;;;5030753;28;20488;-70
2021/03/18 05:47:12;;;;;;;22.17;12.88;;;0.40;99.90;;;;;;5026986;28;20052;-69
2021/03/18 05:49:42;;;;;;;20.70;12.38;;;0.50;99.90;;;;;;5022860;28;20099;-69
2021/03/18 05:52:09;;;;;;;23.70;14.38;;;0.50;99.90;;;;;;5032111;28;20053;-70
2021/03/18 05:54:40;;;;;;;22.52;13.35;;;0.60;99.90;;;;;;5026267;28;20484;-70
2021/03/18 05:57:09;;;;;;;23.55;13.20;;;0.60;99.90;;;;;;5023823;28;20499;-71
2021/03/18 05:59:36;;;;;;;19.80;12.23;;;0.60;99.90;;;;;;5026293;28;20476;-71
2021/03/18 06:02:03;;;;;;;21.80;13.30;;;0.60;99.90;;;;;;5029438;28;20050;-71
2021/03/18 06:04:30;;;;;;;23.55;13.05;;;0.70;99.90;;;;;;5030919;28;20049;-71
2021/03/18 06:06:57;;;;;;;21.63;13.20;;;0.70;99.90;;;;;;5030436;28;20396;-70
2021/03/18 06:09:24;;;;;;;21.25;12.25;;;0.70;99.90;;;;;;5028322;28;20442;-70
2021/03/18 06:11:54;;;;;;;23.48;13.18;;;0.80;99.90;;;;;;5029588;28;20055;-69
2021/03/18 06:14:20;;;;;;;22.10;11.88;;;0.90;99.90;;;;;;5021506;28;20046;-70
2021/03/18 06:16:48;;;;;;;20.80;11.82;;;0.90;99.90;;;;;;5014550;28;20099;-70
2021/03/18 06:19:15;;;;;;;21.90;12.88;;;1.00;99.90;;;;;;5017183;28;20050;-71
2021/03/18 06:21:56;;;;;;;21.80;12.52;;;1.10;99.90;;;;;;5030101;28;20055;-69
2021/03/18 06:24:24;;;;;;;23.65;13.32;;;1.20;99.90;;;;;;5027896;28;20061;-70
2021/03/18 06:26:52;;;;;;;24.58;13.77;;;1.20;99.90;;;;;;5029910;28;20057;-70
2021/03/18 06:29:35;;;;;;;22.67;12.35;;;1.20;99.90;;;;;;5015570;28;20499;-69
2021/03/18 06:32:13;;;;;;;20.98;12.95;;;1.30;99.90;;;;;;5021360;28;20053;-69
2021/03/18 06:34:56;;;;;;;22.48;12.88;;;1.30;99.90;;;;;;5025555;28;20059;-69
2021/03/18 06:37:34;;;;;;;25.02;13.35;;;1.30;99.90;;;;;;5026875;28;20132;-70
2021/03/18 06:40:27;;;;;;;21.05;12.95;;;1.30;99.90;;;;;;5028643;28;20037;-70
2021/03/18 06:42:59;;;;;;;23.52;12.07;;;1.30;99.90;;;;;;5024333;28;20048;-71
2021/03/18 06:45:44;;;;;;;21.92;12.85;;;1.30;99.90;;;;;;5024660;28;20052;-69
2021/03/18 06:48:13;;;;;;;23.70;13.15;;;1.40;99.90;;;;;;5030473;28;20041;-70
2021/03/18 06:50:42;;;;;;;22.58;12.98;;;1.50;99.90;;;;;;5031197;28;20061;-70
2021/03/18 06:53:28;;;;;;;22.52;12.93;;;1.50;99.90;;;;;;5031785;28;20045;-69
2021/03/18 06:55:59;;;;;;;20.38;12.88;;;1.50;99.90;;;;;;5031637;28;20050;-69
2021/03/18 06:58:27;;;;;;;18.77;11.70;;;1.60;99.90;;;;;;5030523;28;20073;-70
2021/03/18 07:00:56;;;;;;;20.05;12.23;;;1.70;99.90;;;;;;5030097;28;20052;-70
2021/03/18 07:03:24;;;;;;;23.42;12.85;;;1.90;99.90;;;;;;5026365;28;20074;-70
2021/03/18 07:05:51;;;;;;;19.55;11.60;;;1.90;99.90;;;;;;5028165;28;20045;-68
2021/03/18 07:08:23;;;;;;;22.55;12.75;;;2.00;99.90;;;;;;5027944;28;20061;-71
2021/03/18 07:10:50;;;;;;;20.83;12.85;;;2.00;99.90;;;;;;5030122;28;20054;-70
2021/03/18 07:13:20;;;;;;;21.77;12.30;;;2.00;99.90;;;;;;5030576;28;20418;-70
2021/03/18 07:15:48;;;;;;;19.55;11.50;;;2.00;99.90;;;;;;5033758;28;20049;-69
2021/03/18 07:18:15;;;;;;;23.10;12.52;;;2.00;99.90;;;;;;5034147;28;20155;-70
2021/03/18 07:20:55;;;;;;;22.55;12.88;;;1.90;99.90;;;;;;5034029;28;20104;-70
2021/03/18 07:23:33;;;;;;;21.80;12.38;;;2.00;99.90;;;;;;5030163;28;20045;-70
2021/03/18 07:26:01;;;;;;;20.92;12.30;;;2.10;99.90;;;;;;5033682;28;20049;-69
2021/03/18 07:28:27;;;;;;;20.05;13.00;;;2.20;99.90;;;;;;5033915;28;20446;-71
2021/03/18 07:30:55;;;;;;;21.05;12.02;;;2.40;99.90;;;;;;5032449;28;20416;-70
2021/03/18 07:33:23;;;;;;;24.25;12.52;;;2.50;99.90;;;;;;5032703;28;20050;-70
2021/03/18 07:35:50;;;;;;;20.35;12.20;;;2.60;99.90;;;;;;5033595;28;20056;-71
2021/03/18 07:38:17;;;;;;;19.42;12.18;;;2.70;99.90;;;;;;5033172;28;20046;-72
2021/03/18 07:40:43;;;;;;;20.48;12.43;;;2.80;99.90;;;;;;5030282;28;20049;-70
2021/03/18 07:43:11;;;;;;;21.08;12.25;;;2.90;99.90;;;;;;5028188;28;20136;-70
2021/03/18 07:45:38;;;;;;;21.65;13.50;;;3.10;99.90;;;;;;5031133;28;20053;-70
2021/03/18 07:48:05;;;;;;;19.40;12.43;;;3.20;99.90;;;;;;5034527;28;20123;-69
2021/03/18 07:50:39;;;;;;;19.27;11.27;;;3.20;99.90;;;;;;5029569;28;20124;-70
2021/03/18 07:53:11;;;;;;;21.08;11.07;;;3.40;99.90;;;;;;5024674;28;20132;-70
2021/03/18 07:55:39;;;;;;;20.73;12.07;;;3.60;99.90;;;;;;5020283;28;20056;-71
2021/03/18 07:58:05;;;;;;;20.77;11.45;;;3.90;99.90;;;;;;5023321;28;20041;-71
2021/03/18 08:00:33;;;;;;;22.58;12.05;;;3.90;99.90;;;;;;5022459;28;20042;-70
2021/03/18 08:03:21;;;;;;;20.92;11.70;;;4.00;99.90;;;;;;5028751;28;20100;-70
2021/03/18 08:05:48;;;;;;;17.90;11.40;;;3.90;99.90;;;;;;5022942;28;20053;-70
2021/03/18 08:08:33;;;;;;;20.50;11.85;;;3.90;99.90;;;;;;5020764;28;20160;-69
2021/03/18 08:11:17;;;;;;;21.13;12.10;;;3.90;99.90;;;;;;5022925;28;20105;-70
2021/03/18 08:13:45;;;;;;;20.90;12.18;;;4.10;99.90;;;;;;5021014;28;20046;-70
2021/03/18 08:16:26;;;;;;;22.63;12.95;;;4.00;99.90;;;;;;5021774;28;20060;-70
2021/03/18 08:18:54;;;;;;;19.50;11.35;;;3.70;99.90;;;;;;5021046;28;20053;-70
2021/03/18 08:21:37;;;;;;;19.85;12.57;;;3.70;99.90;;;;;;5017415;28;20053;-71
2021/03/18 08:24:09;;;;;;;24.23;12.50;;;3.90;99.90;;;;;;5020972;28;20133;-70
2021/03/18 08:26:51;;;;;;;20.23;11.63;;;3.80;99.90;;;;;;5019461;28;20126;-70
2021/03/18 08:29:37;;;;;;;15.32;10.05;;;3.80;99.90;;;;;;5024079;28;20482;-70
2021/03/18 08:32:26;;;;;;;18.77;11.43;;;3.90;99.90;;;;;;5013257;28;20480;-70
2021/03/18 08:34:53;;;;;;;17.70;11.57;;;4.10;99.90;;;;;;5024912;28;20419;-71
2021/03/18 08:37:38;;;;;;;18.70;11.60;;;4.10;99.90;;;;;;5023115;28;20133;-70
2021/03/18 08:40:14;;;;;;;17.70;11.45;;;4.30;99.90;;;;;;5027953;28;20072;-70
2021/03/18 08:42:42;;;;;;;16.83;12.20;;;4.50;99.90;;;;;;5022873;28;20069;-70
2021/03/18 08:45:10;;;;;;;16.70;11.43;;;4.50;99.90;;;;;;5027301;28;20049;-70
2021/03/18 08:47:42;;;;;;;20.48;11.00;;;4.40;99.90;;;;;;5022161;28;20042;-70
2021/03/18 08:50:23;;;;;;;16.23;11.07;;;4.50;99.90;;;;;;5024210;28;20054;-70
2021/03/18 08:52:55;;;;;;;16.23;10.18;;;4.60;99.90;;;;;;5028809;28;20384;-70
2021/03/18 08:55:35;;;;;;;13.50;10.23;;;4.70;99.90;;;;;;5027318;28;20054;-71
2021/03/18 08:58:04;;;;;;;12.75;9.43;;;4.50;99.90;;;;;;5028810;28;20772;-69
2021/03/18 09:00:34;;;;;;;15.73;10.90;;;4.40;99.90;;;;;;5022639;28;20377;-70
2021/03/18 09:03:02;;;;;;;13.93;9.95;;;4.40;99.90;;;;;;5020942;28;20048;-70
2021/03/18 09:05:29;;;;;;;19.50;13.23;;;4.50;99.90;;;;;;5023466;28;20053;-70
2021/03/18 09:07:59;;;;;;;15.90;11.10;;;4.70;99.90;;;;;;5031870;28;20057;-69
2021/03/18 09:10:34;;;;;;;16.55;10.75;;;5.00;99.90;;;;;;5027555;28;20048;-69
2021/03/18 09:13:25;;;;;;;14.75;10.80;;;5.30;99.90;;;;;;5025427;28;20052;-70
2021/03/18 09:15:58;;;;;;;13.63;10.40;;;5.30;99.90;;;;;;5028541;28;20068;-69
2021/03/18 09:18:28;;;;;;;13.27;9.82;;;5.30;99.90;;;;;;5026488;28;20033;-69
2021/03/18 09:21:02;;;;;;;14.27;10.65;;;5.40;99.90;;;;;;5013221;28;20053;-70
2021/03/18 09:23:34;;;;;;;13.90;10.25;;;5.40;99.90;;;;;;5023448;28;20042;-71
2021/03/18 09:26:09;;;;;;;18.83;10.30;;;5.50;99.90;;;;;;5022746;28;20038;-70
2021/03/18 09:28:37;;;;;;;12.55;9.98;;;5.70;99.90;;;;;;5021589;28;20419;-70
2021/03/18 09:31:04;;;;;;;13.15;10.70;;;5.90;99.90;;;;;;5026276;28;20128;-69
2021/03/18 09:33:32;;;;;;;13.95;11.18;;;6.00;99.90;;;;;;5032269;28;20502;-70
2021/03/18 09:36:03;;;;;;;11.50;10.00;;;6.20;99.90;;;;;;5031444;28;20050;-69
2021/03/18 09:38:58;;;;;;;12.45;10.13;;;6.30;99.90;;;;;;5031608;28;20107;-70
2021/03/18 09:41:29;;;;;;;15.13;10.98;;;6.20;99.90;;;;;;5028717;28;20052;-70
2021/03/18 09:44:08;;;;;;;11.65;10.45;;;6.20;99.90;;;;;;5027333;28;20049;-69
2021/03/18 09:46:36;;;;;;;13.07;10.68;;;6.10;99.90;;;;;;5029928;28;20063;-69
2021/03/18 09:49:04;;;;;;;11.43;10.13;;;5.90;99.90;;;;;;5029185;28;20091;-70
2021/03/18 09:51:38;;;;;;;12.93;9.80;;;5.70;99.90;;;;;;5020921;28;20132;-69
2021/03/18 09:54:10;;;;;;;9.68;8.77;;;5.80;99.90;;;;;;5028817;28;20068;-70
2021/03/18 09:56:42;;;;;;;12.52;10.70;;;5.70;99.90;;;;;;5023452;28;20090;-69
2021/03/18 09:59:13;;;;;;;10.75;9.70;;;5.50;99.90;;;;;;5026209;28;20056;-70
2021/03/18 10:01:40;;;;;;;10.18;9.18;;;5.70;99.90;;;;;;5025085;28;20049;-70
2021/03/18 10:04:14;;;;;;;10.40;9.40;;;5.70;99.90;;;;;;5023472;28;20063;-70
2021/03/18 10:06:47;;;;;;;13.68;9.90;;;6.00;99.90;;;;;;5015596;28;20107;-70
2021/03/18 10:09:42;;;;;;;12.32;10.88;;;6.20;99.90;;;;;;5028920;28;20476;-71
2021/03/18 10:12:19;;;;;;;13.38;11.02;;;6.40;99.90;;;;;;5020672;28;20049;-70
2021/03/18 10:15:06;;;;;;;12.90;11.73;;;6.70;99.90;;;;;;5030906;28;20523;-70
2021/03/18 10:17:42;;;;;;;11.48;10.38;;;6.50;99.90;;;;;;5031093;28;20107;-68
2021/03/18 10:20:33;;;;;;;16.95;10.98;;;6.80;99.90;;;;;;5030606;28;20471;-68
2021/03/18 10:23:02;;;;;;;13.23;11.20;;;7.00;99.90;;;;;;5031487;28;20045;-67
2021/03/18 10:25:34;;;;;;;12.20;10.73;;;7.20;99.90;;;;;;5032021;28;20049;-68
2021/03/18 10:28:10;;;;;;;11.38;10.18;;;7.40;99.90;;;;;;5022433;28;20049;-68
2021/03/18 10:30:54;;;;;;;12.30;10.98;;;7.50;99.90;;;;;;5031258;28;20053;-68
2021/03/18 10:33:25;;;;;;;11.75;9.50;;;7.80;99.90;;;;;;5031081;28;20053;-68
2021/03/18 10:36:02;;;;;;;12.52;10.52;;;8.00;99.90;;;;;;5031518;28;20057;-68
2021/03/18 10:38:41;;;;;;;11.75;10.55;;;7.80;99.90;;;;;;5031050;28;20060;-67
2021/03/18 10:41:15;;;;;;;11.63;10.50;;;7.70;99.90;;;;;;5029724;28;20555;-68
2021/03/18 10:43:47;;;;;;;14.57;11.50;;;8.00;99.90;;;;;;5023258;28;20054;-69
2021/03/18 10:46:18;;;;;;;;;;;8.60;99.90;;;;;;5031437;28;20045;-68
2021/03/18 10:48:51;;;;;;;12.93;9.88;;;9.00;99.90;;;;;;5033736;28;19921;-68
2021/03/18 10:51:20;;;;;;;12.40;11.05;;;8.80;99.90;;;;;;5030185;28;20111;-68
2021/03/18 10:53:48;;;;;;;14.30;11.98;;;8.80;99.90;;;;;;5034360;28;20049;-67
2021/03/18 10:56:24;;;;;;;12.63;11.43;;;8.80;99.90;;;;;;5034858;28;20144;-67
2021/03/18 10:58:52;;;;;;;12.10;11.00;;;8.90;99.90;;;;;;5031382;28;20594;-68
2021/03/18 11:01:25;;;;;;;11.93;10.93;;;8.80;99.90;;;;;;5029211;28;20405;-68
2021/03/18 11:04:04;;;;;;;11.77;10.65;;;8.50;99.90;;;;;;5033730;28;20076;-68
2021/03/18 11:06:32;;;;;;;12.30;11.20;;;8.10;99.90;;;;;;5033497;28;20041;-68
2021/03/18 11:09:00;;;;;;;12.50;11.40;;;8.00;99.90;;;;;;5021783;28;20052;-68
2021/03/18 11:11:28;;;;;;;12.70;11.02;;;7.90;99.90;;;;;;5019806;28;20157;-67
2021/03/18 11:14:09;;;;;;;12.18;10.88;;;7.60;99.90;;;;;;5027257;28;20049;-67
2021/03/18 11:16:36;;;;;;;12.88;11.57;;;7.00;99.90;;;;;;5034822;28;20045;-68
2021/03/18 11:19:06;;;;;;;12.48;11.27;;;6.80;99.90;;;;;;5035162;28;20080;-69
2021/03/18 11:21:35;;;;;;;13.23;11.35;;;6.50;99.90;;;;;;5031032;28;20123;-68
2021/03/18 11:24:09;;;;;;;11.68;10.40;;;6.20;99.90;;;;;;5026476;28;20053;-68
2021/03/18 11:26:38;;;;;;;11.98;10.70;;;6.00;99.90;;;;;;5031312;28;20048;-71
2021/03/18 11:29:11;;;;;;;12.20;10.95;;;6.00;99.90;;;;;;5020946;28;20049;-71
2021/03/18 11:31:43;;;;;;;12.73;9.90;;;6.00;99.90;;;;;;5029837;28;20073;-71
2021/03/18 11:34:28;;;;;;;13.52;10.02;;;5.80;99.90;;;;;;5032466;28;20049;-69
2021/03/18 11:36:57;;;;;;;11.23;9.88;;;5.70;99.90;;;;;;5029673;28;20049;-71
2021/03/18 11:39:26;;;;;;;11.07;9.98;;;5.80;99.90;;;;;;5032295;28;20045;-70
2021/03/18 11:41:55;;;;;;;10.40;9.18;;;6.10;99.90;;;;;;5035054;28;20045;-69
2021/03/18 11:44:23;;;;;;;10.95;9.95;;;6.30;99.90;;;;;;5027936;28;20061;-69
2021/03/18 11:46:50;;;;;;;10.32;9.43;;;6.50;99.90;;;;;;5032552;28;20053;-70
2021/03/18 11:49:20;;;;;;;11.43;10.18;;;6.60;99.90;;;;;;5027426;28;20055;-69
2021/03/18 11:51:46;;;;;;;10.52;9.52;;;6.80;99.90;;;;;;5034502;28;20504;-69
2021/03/18 11:54:13;;;;;;;11.82;10.63;;;7.00;99.90;;;;;;5030624;28;20052;-70
2021/03/18 11:56:39;;;;;;;11.30;10.23;;;7.20;99.90;;;;;;5034639;28;20045;-69
2021/03/18 11:59:06;;;;;;;12.00;10.80;;;7.10;99.90;;;;;;5032283;28;20052;-69
2021/03/18 12:01:32;;;;;;;11.30;10.25;;;7.20;99.90;;;;;;5027579;28;20124;-68
2021/03/18 12:03:59;;;;;;;19.23;14.48;;;7.10;99.90;;;;;;5034372;28;20461;-70
2021/03/18 12:06:26;;;;;;;11.48;10.25;;;7.10;99.90;;;;;;5036161;28;20132;-70
2021/03/18 12:08:52;;;;;;;10.85;9.73;;;7.00;99.90;;;;;;5033692;28;20127;-70
2021/03/18 12:11:19;;;;;;;10.85;9.82;;;6.70;99.90;;;;;;5028701;28;20129;-70
2021/03/18 12:13:45;;;;;;;10.73;9.43;;;6.70;99.90;;;;;;5027035;28;20391;-69
2021/03/18 12:16:13;;;;;;;10.95;9.85;;;6.50;99.90;;;;;;5029321;28;20088;-69
2021/03/18 12:18:40;;;;;;;11.45;10.13;;;6.30;99.90;;;;;;5028128;28;20053;-69
2021/03/18 12:21:07;;;;;;;14.77;11.25;;;6.20;99.90;;;;;;5028107;28;20056;-68
2021/03/18 12:23:34;;;;;;;11.88;9.45;;;6.00;99.90;;;;;;5028843;28;20045;-69
2021/03/18 12:26:01;;;;;;;11.63;10.43;;;5.90;99.90;;;;;;5031961;28;20080;-68
2021/03/18 12:28:27;;;;;;;11.88;10.00;;;5.80;99.90;;;;;;5032789;28;20075;-70
2021/03/18 12:30:54;;;;;;;13.00;9.93;;;5.70;99.90;;;;;;5031955;28;20060;-70
2021/03/18 12:33:21;;;;;;;11.23;10.00;;;5.70;99.90;;;;;;5033523;28;20073;-69
2021/03/18 12:35:49;;;;;;;11.35;9.80;;;5.60;99.90;;;;;;5032886;28;20061;-69
2021/03/18 12:38:16;;;;;;;10.88;9.77;;;5.70;99.90;;;;;;5033423;28;20049;-69
2021/03/18 12:40:43;;;;;;;10.25;9.10;;;5.70;99.90;;;;;;5034296;28;20052;-69
2021/03/18 12:43:10;;;;;;;12.23;10.45;;;5.90;99.90;;;;;;5033396;28;20045;-70
2021/03/18 12:45:39;;;;;;;12.65;9.52;;;6.00;99.90;;;;;;5026730;28;20041;-69
2021/03/18 12:48:06;;;;;;;10.10;9.20;;;6.00;99.90;;;;;;5029762;28;20041;-69
2021/03/18 12:50:33;;;;;;;11.23;10.02;;;6.10;99.90;;;;;;5032524;28;20530;-69
2021/03/18 12:52:59;;;;;;;10.40;9.40;;;6.10;99.90;;;;;;5032813;28;20521;-69
2021/03/18 12:55:27;;;;;;;11.50;10.40;;;6.20;99.90;;;;;;5033045;28;20072;-68